createdAt,value
2017-08-13T00:00:02.249Z,15.03
2017-08-13T00:01:02.973Z,15.00
2017-08-13T00:02:03.690Z,15.02
2017-08-13T00:03:04.415Z,15.07
2017-08-13T00:04:05.133Z,15.11
2017-08-13T00:05:05.856Z,15.07
2017-08-13T00:06:06.578Z,14.99
2017-08-13T00:07:07.329Z,14.94
2017-08-13T00:08:08.044Z,15.06
2017-08-13T00:09:08.790Z,14.99
2017-08-13T00:10:09.510Z,14.97
2017-08-13T00:11:10.253Z,14.99
2017-08-13T00:12:10.974Z,14.97
2017-08-13T00:13:11.694Z,15.03
2017-08-13T00:14:12.418Z,14.94
2017-08-13T00:15:13.137Z,15.04
2017-08-13T00:16:13.858Z,14.99
2017-08-13T00:17:14.581Z,15.09
2017-08-13T00:18:15.306Z,15.04
2017-08-13T00:19:16.023Z,15.06
2017-08-13T00:20:16.746Z,15.10
2017-08-13T00:21:17.465Z,14.99
2017-08-13T00:22:18.206Z,15.03
2017-08-13T00:23:18.929Z,14.94
2017-08-13T00:24:19.670Z,15.07
2017-08-13T00:25:20.390Z,14.96
2017-08-13T00:26:21.114Z,14.99
2017-08-13T00:27:21.835Z,14.99
2017-08-13T00:28:22.557Z,14.97
2017-08-13T00:29:23.301Z,15.00
2017-08-13T00:30:24.021Z,15.00
2017-08-13T00:31:24.738Z,14.94
2017-08-13T00:32:25.462Z,14.89
2017-08-13T00:33:26.180Z,14.86
2017-08-13T00:34:26.904Z,14.99
2017-08-13T00:35:27.649Z,14.86
2017-08-13T00:36:28.390Z,14.99
2017-08-13T00:37:29.105Z,14.92
2017-08-13T00:38:29.828Z,14.96
2017-08-13T00:39:30.549Z,14.94
2017-08-13T00:40:31.272Z,14.84
2017-08-13T00:41:31.991Z,14.82
2017-08-13T00:42:32.719Z,14.86
2017-08-13T00:43:33.433Z,14.89
2017-08-13T00:44:34.154Z,14.89
2017-08-13T00:45:34.875Z,14.85
2017-08-13T00:46:35.617Z,14.82
2017-08-13T00:47:36.338Z,14.85
2017-08-13T00:48:37.060Z,14.79
2017-08-13T00:49:37.777Z,14.79
2017-08-13T00:50:38.501Z,14.81
2017-08-13T00:51:39.220Z,14.84
2017-08-13T00:52:39.939Z,14.84
2017-08-13T00:53:40.680Z,14.72
2017-08-13T00:54:41.403Z,14.79
2017-08-13T00:55:42.120Z,14.79
2017-08-13T00:56:42.841Z,14.70
2017-08-13T00:57:43.564Z,14.78
2017-08-13T00:58:44.280Z,14.72
2017-08-13T00:59:45.001Z,14.77
2017-08-13T01:00:45.724Z,14.82
2017-08-13T01:01:46.448Z,14.73
2017-08-13T01:02:47.170Z,14.78
2017-08-13T01:03:47.887Z,14.66
2017-08-13T01:04:48.609Z,14.72
2017-08-13T01:05:49.332Z,14.66
2017-08-13T01:06:50.056Z,14.63
2017-08-13T01:07:50.775Z,14.69
2017-08-13T01:08:51.499Z,14.72
2017-08-13T01:09:52.218Z,14.66
2017-08-13T01:10:52.959Z,14.63
2017-08-13T01:11:53.679Z,14.65
2017-08-13T01:12:54.402Z,14.69
2017-08-13T01:13:55.127Z,14.55
2017-08-13T01:14:55.846Z,14.58
2017-08-13T01:15:56.569Z,14.58
2017-08-13T01:16:57.289Z,14.54
2017-08-13T01:17:58.012Z,14.48
2017-08-13T01:18:58.733Z,14.59
2017-08-13T01:19:59.455Z,14.51
2017-08-13T01:21:00.176Z,14.54
2017-08-13T01:22:00.902Z,14.54
2017-08-13T01:23:01.641Z,14.53
2017-08-13T01:24:02.366Z,14.54
2017-08-13T01:25:03.086Z,14.54
2017-08-13T01:26:03.833Z,14.53
2017-08-13T01:27:04.551Z,14.55
2017-08-13T01:28:05.274Z,14.54
2017-08-13T01:29:05.992Z,14.53
2017-08-13T01:30:06.720Z,14.59
2017-08-13T01:31:07.438Z,14.60
2017-08-13T01:32:08.163Z,14.59
2017-08-13T01:33:08.885Z,14.59
2017-08-13T01:34:09.606Z,14.59
2017-08-13T01:35:10.329Z,14.68
2017-08-13T01:36:11.049Z,14.63
2017-08-13T01:37:11.769Z,14.65
2017-08-13T01:38:12.489Z,14.62
2017-08-13T01:39:13.235Z,14.59
2017-08-13T01:40:13.952Z,14.65
2017-08-13T01:41:14.697Z,14.65
2017-08-13T01:42:15.445Z,14.70
2017-08-13T01:43:16.167Z,14.66
2017-08-13T01:44:16.885Z,14.69
2017-08-13T01:45:17.605Z,14.66
2017-08-13T01:46:18.329Z,14.66
2017-08-13T01:47:19.072Z,14.69
2017-08-13T01:48:19.794Z,14.69
2017-08-13T01:49:20.517Z,14.66
2017-08-13T01:50:21.265Z,14.63
2017-08-13T01:51:22.012Z,14.65
2017-08-13T01:52:22.734Z,14.72
2017-08-13T01:53:23.456Z,14.68
2017-08-13T01:54:24.174Z,14.70
2017-08-13T01:55:24.896Z,14.78
2017-08-13T01:56:25.617Z,14.78
2017-08-13T01:57:26.363Z,14.68
2017-08-13T01:58:27.082Z,14.72
2017-08-13T01:59:27.806Z,14.65
2017-08-13T02:00:28.524Z,14.72
2017-08-13T02:01:29.247Z,14.77
2017-08-13T02:02:29.968Z,14.77
2017-08-13T02:03:30.716Z,14.70
2017-08-13T02:04:31.439Z,14.69
2017-08-13T02:05:32.164Z,14.70
2017-08-13T02:06:32.892Z,14.77
2017-08-13T02:07:33.605Z,14.77
2017-08-13T02:08:34.329Z,14.63
2017-08-13T02:09:35.050Z,14.77
2017-08-13T02:10:35.774Z,14.73
2017-08-13T02:11:36.493Z,14.70
2017-08-13T02:12:37.216Z,14.77
2017-08-13T02:13:37.963Z,14.78
2017-08-13T02:14:38.684Z,14.66
2017-08-13T02:15:39.404Z,14.68
2017-08-13T02:16:40.122Z,14.73
2017-08-13T02:17:40.846Z,14.70
2017-08-13T02:18:41.568Z,14.69
2017-08-13T02:19:42.291Z,14.72
2017-08-13T02:20:43.043Z,14.77
2017-08-13T02:21:43.759Z,14.81
2017-08-13T02:22:44.483Z,14.73
2017-08-13T02:23:45.206Z,14.78
2017-08-13T02:24:45.930Z,14.73
2017-08-13T02:25:46.644Z,14.79
2017-08-13T02:26:47.367Z,14.69
2017-08-13T02:27:48.088Z,14.73
2017-08-13T02:28:48.810Z,14.73
2017-08-13T02:29:49.535Z,14.78
2017-08-13T02:30:50.259Z,14.65
2017-08-13T02:31:50.982Z,14.72
2017-08-13T02:32:51.725Z,14.72
2017-08-13T02:33:52.446Z,14.72
2017-08-13T02:34:53.167Z,14.72
2017-08-13T02:35:53.891Z,14.72
2017-08-13T02:36:54.614Z,14.66
2017-08-13T02:37:55.360Z,14.72
2017-08-13T02:38:56.079Z,14.68
2017-08-13T02:39:56.803Z,14.62
2017-08-13T02:40:57.529Z,14.63
2017-08-13T02:41:58.250Z,14.59
2017-08-13T02:42:58.970Z,14.65
2017-08-13T02:43:59.712Z,14.65
2017-08-13T02:45:00.439Z,14.63
2017-08-13T02:46:01.159Z,14.66
2017-08-13T02:47:01.881Z,14.66
2017-08-13T02:48:02.605Z,14.66
2017-08-13T02:49:03.324Z,14.66
2017-08-13T02:50:04.070Z,14.60
2017-08-13T02:51:04.791Z,14.59
2017-08-13T02:52:05.513Z,14.60
2017-08-13T02:53:06.236Z,14.63
2017-08-13T02:54:06.957Z,14.60
2017-08-13T02:55:07.677Z,14.54
2017-08-13T02:56:08.421Z,14.48
2017-08-13T02:57:09.165Z,14.53
2017-08-13T02:58:09.908Z,14.50
2017-08-13T02:59:10.654Z,14.55
2017-08-13T03:00:11.378Z,14.55
2017-08-13T03:01:12.097Z,14.58
2017-08-13T03:02:12.845Z,14.50
2017-08-13T03:03:13.571Z,14.44
2017-08-13T03:04:14.318Z,14.50
2017-08-13T03:05:15.038Z,14.50
2017-08-13T03:06:15.760Z,14.41
2017-08-13T03:07:16.506Z,14.37
2017-08-13T03:08:17.227Z,14.41
2017-08-13T03:09:17.984Z,14.41
2017-08-13T03:10:18.697Z,14.40
2017-08-13T03:11:19.420Z,14.41
2017-08-13T03:12:20.143Z,14.36
2017-08-13T03:13:20.884Z,14.32
2017-08-13T03:14:21.607Z,14.22
2017-08-13T03:15:22.353Z,14.28
2017-08-13T03:16:23.077Z,14.28
2017-08-13T03:17:23.796Z,14.26
2017-08-13T03:18:24.541Z,14.22
2017-08-13T03:19:25.262Z,14.17
2017-08-13T03:20:25.984Z,14.18
2017-08-13T03:21:26.706Z,14.15
2017-08-13T03:22:27.426Z,14.18
2017-08-13T03:23:28.151Z,14.18
2017-08-13T03:24:28.871Z,14.26
2017-08-13T03:25:29.592Z,14.15
2017-08-13T03:26:30.317Z,14.17
2017-08-13T03:27:31.037Z,14.12
2017-08-13T03:28:31.758Z,14.12
2017-08-13T03:29:32.482Z,14.11
2017-08-13T03:30:33.203Z,14.15
2017-08-13T03:31:33.927Z,14.14
2017-08-13T03:32:34.673Z,14.12
2017-08-13T03:33:35.421Z,14.00
2017-08-13T03:34:36.166Z,14.04
2017-08-13T03:35:36.912Z,14.03
2017-08-13T03:36:37.632Z,14.03
2017-08-13T03:37:38.379Z,14.03
2017-08-13T03:38:39.101Z,13.99
2017-08-13T03:39:39.846Z,13.99
2017-08-13T03:40:40.568Z,14.03
2017-08-13T03:41:41.291Z,13.93
2017-08-13T03:42:42.012Z,13.96
2017-08-13T03:43:42.759Z,13.90
2017-08-13T03:44:43.479Z,13.85
2017-08-13T03:45:44.205Z,13.90
2017-08-13T03:46:44.920Z,13.78
2017-08-13T03:47:45.644Z,13.83
2017-08-13T03:48:46.389Z,13.81
2017-08-13T03:49:47.113Z,13.74
2017-08-13T03:50:47.858Z,13.78
2017-08-13T03:51:48.583Z,13.78
2017-08-13T03:52:49.326Z,13.74
2017-08-13T03:53:50.052Z,13.74
2017-08-13T03:54:50.801Z,13.65
2017-08-13T03:55:51.548Z,13.65
2017-08-13T03:56:52.270Z,13.67
2017-08-13T03:57:53.016Z,13.63
2017-08-13T03:58:53.764Z,13.70
2017-08-13T03:59:54.483Z,13.65
2017-08-13T04:00:55.208Z,13.65
2017-08-13T04:01:55.933Z,13.68
2017-08-13T04:02:56.672Z,13.62
2017-08-13T04:03:57.420Z,13.57
2017-08-13T04:04:58.143Z,13.62
2017-08-13T04:05:58.869Z,13.62
2017-08-13T04:06:59.619Z,13.59
2017-08-13T04:08:00.367Z,13.71
2017-08-13T04:09:01.086Z,13.56
2017-08-13T04:10:01.811Z,13.60
2017-08-13T04:11:02.531Z,13.59
2017-08-13T04:12:03.255Z,13.62
2017-08-13T04:13:03.995Z,13.53
2017-08-13T04:14:04.718Z,13.53
2017-08-13T04:15:05.441Z,13.50
2017-08-13T04:16:06.169Z,13.49
2017-08-13T04:17:06.896Z,13.47
2017-08-13T04:18:07.621Z,13.56
2017-08-13T04:19:08.342Z,13.49
2017-08-13T04:20:09.090Z,13.53
2017-08-13T04:21:09.812Z,13.54
2017-08-13T04:22:10.536Z,13.63
2017-08-13T04:23:11.264Z,13.57
2017-08-13T04:24:11.989Z,13.56
2017-08-13T04:25:12.736Z,13.60
2017-08-13T04:26:13.461Z,13.70
2017-08-13T04:27:14.184Z,13.70
2017-08-13T04:28:14.913Z,13.62
2017-08-13T04:29:15.643Z,13.59
2017-08-13T04:30:16.386Z,13.63
2017-08-13T04:31:17.112Z,13.54
2017-08-13T04:32:17.838Z,13.68
2017-08-13T04:33:18.561Z,13.71
2017-08-13T04:34:19.288Z,13.70
2017-08-13T04:35:20.014Z,13.65
2017-08-13T04:36:20.741Z,13.68
2017-08-13T04:37:21.488Z,13.70
2017-08-13T04:38:22.216Z,13.63
2017-08-13T04:39:22.941Z,13.74
2017-08-13T04:40:23.661Z,13.74
2017-08-13T04:41:24.386Z,13.71
2017-08-13T04:42:25.114Z,13.71
2017-08-13T04:43:25.863Z,13.57
2017-08-13T04:44:26.592Z,13.59
2017-08-13T04:45:27.339Z,13.70
2017-08-13T04:46:28.068Z,13.70
2017-08-13T04:47:28.793Z,13.67
2017-08-13T04:48:29.518Z,13.68
2017-08-13T04:49:30.245Z,13.63
2017-08-13T04:50:30.969Z,13.63
2017-08-13T04:51:31.719Z,13.62
2017-08-13T04:52:32.470Z,13.63
2017-08-13T04:53:33.195Z,13.74
2017-08-13T04:54:33.918Z,13.77
2017-08-13T04:55:34.650Z,13.78
2017-08-13T04:56:35.373Z,13.72
2017-08-13T04:57:36.125Z,13.81
2017-08-13T04:58:36.847Z,13.78
2017-08-13T04:59:37.576Z,13.83
2017-08-13T05:00:38.302Z,13.83
2017-08-13T05:01:39.029Z,13.79
2017-08-13T05:02:39.788Z,13.90
2017-08-13T05:03:40.534Z,13.83
2017-08-13T05:04:41.260Z,13.95
2017-08-13T05:05:41.989Z,13.95
2017-08-13T05:06:42.715Z,13.89
2017-08-13T05:07:43.440Z,13.90
2017-08-13T05:08:44.165Z,13.92
2017-08-13T05:09:44.920Z,14.00
2017-08-13T05:10:45.647Z,14.04
2017-08-13T05:11:46.400Z,14.05
2017-08-13T05:12:47.125Z,14.12
2017-08-13T05:13:47.874Z,14.05
2017-08-13T05:14:48.599Z,14.05
2017-08-13T05:15:49.325Z,14.07
2017-08-13T05:16:50.077Z,14.05
2017-08-13T05:17:50.801Z,14.12
2017-08-13T05:18:51.546Z,14.14
2017-08-13T05:19:52.276Z,14.12
2017-08-13T05:20:53.022Z,14.12
2017-08-13T05:21:53.771Z,14.18
2017-08-13T05:22:54.496Z,14.17
2017-08-13T05:23:55.226Z,14.22
2017-08-13T05:24:55.950Z,14.26
2017-08-13T05:25:56.675Z,14.28
2017-08-13T05:26:57.406Z,14.29
2017-08-13T05:27:58.135Z,14.26
2017-08-13T05:28:58.863Z,14.30
2017-08-13T05:29:59.588Z,14.30
2017-08-13T05:31:00.313Z,14.29
2017-08-13T05:32:01.058Z,14.32
2017-08-13T05:33:01.792Z,14.37
2017-08-13T05:34:02.517Z,14.37
2017-08-13T05:35:03.245Z,14.35
2017-08-13T05:36:03.983Z,14.41
2017-08-13T05:37:04.695Z,14.40
2017-08-13T05:38:05.426Z,14.41
2017-08-13T05:39:06.174Z,14.50
2017-08-13T05:40:06.899Z,14.43
2017-08-13T05:41:07.630Z,14.50
2017-08-13T05:42:08.380Z,14.47
2017-08-13T05:43:09.117Z,14.55
2017-08-13T05:44:09.833Z,14.54
2017-08-13T05:45:10.580Z,14.51
2017-08-13T05:46:11.308Z,14.55
2017-08-13T05:47:12.035Z,14.58
2017-08-13T05:48:12.786Z,14.55
2017-08-13T05:49:13.510Z,14.60
2017-08-13T05:50:14.237Z,14.63
2017-08-13T05:51:14.964Z,14.77
2017-08-13T05:52:15.691Z,14.78
2017-08-13T05:53:16.420Z,14.79
2017-08-13T05:54:17.154Z,14.79
2017-08-13T05:55:17.875Z,14.81
2017-08-13T05:56:18.629Z,14.86
2017-08-13T05:57:19.356Z,14.91
2017-08-13T05:58:20.080Z,15.00
2017-08-13T05:59:20.810Z,14.97
2017-08-13T06:00:21.537Z,15.02
2017-08-13T06:01:22.267Z,15.07
2017-08-13T06:02:22.996Z,15.04
2017-08-13T06:03:23.721Z,15.07
2017-08-13T06:04:24.449Z,15.17
2017-08-13T06:05:25.176Z,15.22
2017-08-13T06:06:25.910Z,15.22
2017-08-13T06:07:26.632Z,15.19
2017-08-13T06:08:27.361Z,15.33
2017-08-13T06:09:28.089Z,15.29
2017-08-13T06:10:28.841Z,15.39
2017-08-13T06:11:29.567Z,15.49
2017-08-13T06:12:30.295Z,15.46
2017-08-13T06:13:31.045Z,15.44
2017-08-13T06:14:31.775Z,15.43
2017-08-13T06:15:32.503Z,15.44
2017-08-13T06:16:33.232Z,15.43
2017-08-13T06:17:33.963Z,15.52
2017-08-13T06:18:34.687Z,15.57
2017-08-13T06:19:35.424Z,15.51
2017-08-13T06:20:36.157Z,15.59
2017-08-13T06:21:36.878Z,15.65
2017-08-13T06:22:37.607Z,15.65
2017-08-13T06:23:38.335Z,15.72
2017-08-13T06:24:39.070Z,15.73
2017-08-13T06:25:39.793Z,15.68
2017-08-13T06:26:40.521Z,15.77
2017-08-13T06:27:41.273Z,15.84
2017-08-13T06:28:42.005Z,15.80
2017-08-13T06:29:42.738Z,15.84
2017-08-13T06:30:43.460Z,15.88
2017-08-13T06:31:44.189Z,15.92
2017-08-13T06:32:44.916Z,15.95
2017-08-13T06:33:45.647Z,15.95
2017-08-13T06:34:46.371Z,16.00
2017-08-13T06:35:47.100Z,16.10
2017-08-13T06:36:47.829Z,16.10
2017-08-13T06:37:48.559Z,16.17
2017-08-13T06:38:49.295Z,16.21
2017-08-13T06:39:50.024Z,16.26
2017-08-13T06:40:50.752Z,16.28
2017-08-13T06:41:51.482Z,16.16
2017-08-13T06:42:52.207Z,16.28
2017-08-13T06:43:52.938Z,16.35
2017-08-13T06:44:53.691Z,16.39
2017-08-13T06:45:54.418Z,16.57
2017-08-13T06:46:55.169Z,16.51
2017-08-13T06:47:55.899Z,16.61
2017-08-13T06:48:56.632Z,16.68
2017-08-13T06:49:57.382Z,16.71
2017-08-13T06:50:58.112Z,16.65
2017-08-13T06:51:58.857Z,16.75
2017-08-13T06:52:59.565Z,16.76
2017-08-13T06:54:00.299Z,16.78
2017-08-13T06:55:01.025Z,16.78
2017-08-13T06:56:01.772Z,16.89
2017-08-13T06:57:02.500Z,16.86
2017-08-13T06:58:03.233Z,16.97
2017-08-13T06:59:03.964Z,17.04
2017-08-13T07:00:04.707Z,17.16
2017-08-13T07:01:05.440Z,17.24
2017-08-13T07:02:06.168Z,17.38
2017-08-13T07:03:06.899Z,17.63
2017-08-13T07:04:07.633Z,17.79
2017-08-13T07:05:08.363Z,17.85
2017-08-13T07:06:09.089Z,17.98
2017-08-13T07:07:09.821Z,18.04
2017-08-13T07:08:10.554Z,18.07
2017-08-13T07:09:11.284Z,18.16
2017-08-13T07:10:12.012Z,18.41
2017-08-13T07:11:12.766Z,18.62
2017-08-13T07:12:13.499Z,18.75
2017-08-13T07:13:14.234Z,18.92
2017-08-13T07:14:14.971Z,18.74
2017-08-13T07:15:15.697Z,18.59
2017-08-13T07:16:16.432Z,18.77
2017-08-13T07:17:17.187Z,18.74
2017-08-13T07:18:17.941Z,18.89
2017-08-13T07:19:18.674Z,19.16
2017-08-13T07:20:19.402Z,19.26
2017-08-13T07:21:20.138Z,19.44
2017-08-13T07:22:20.871Z,19.47
2017-08-13T07:23:21.602Z,19.55
2017-08-13T07:24:22.339Z,19.56
2017-08-13T07:25:23.067Z,19.86
2017-08-13T07:26:23.805Z,20.13
2017-08-13T07:27:24.539Z,20.21
2017-08-13T07:28:25.266Z,20.28
2017-08-13T07:29:26.021Z,20.43
2017-08-13T07:30:26.777Z,20.47
2017-08-13T07:31:27.510Z,20.18
2017-08-13T07:32:28.244Z,20.29
2017-08-13T07:33:29.000Z,20.02
2017-08-13T07:34:29.733Z,19.94
2017-08-13T07:35:30.469Z,20.00
2017-08-13T07:36:31.202Z,19.88
2017-08-13T07:37:31.933Z,19.91
2017-08-13T07:38:32.669Z,19.91
2017-08-13T07:39:33.401Z,20.09
2017-08-13T07:40:34.137Z,19.95
2017-08-13T07:41:34.897Z,19.95
2017-08-13T07:42:35.630Z,20.37
2017-08-13T07:43:36.392Z,20.44
2017-08-13T07:44:37.126Z,20.52
2017-08-13T07:45:37.863Z,20.60
2017-08-13T07:46:38.599Z,20.96
2017-08-13T07:47:39.335Z,21.30
2017-08-13T07:48:40.075Z,21.35
2017-08-13T07:49:40.832Z,21.48
2017-08-13T07:50:41.594Z,21.67
2017-08-13T07:51:42.332Z,21.95
2017-08-13T07:52:43.071Z,21.98
2017-08-13T07:53:43.811Z,22.20
2017-08-13T07:54:44.557Z,22.26
2017-08-13T07:55:45.297Z,22.32
2017-08-13T07:56:46.038Z,22.06
2017-08-13T07:57:46.804Z,21.82
2017-08-13T07:58:47.548Z,21.95
2017-08-13T07:59:48.285Z,21.91
2017-08-13T08:00:49.030Z,21.77
2017-08-13T08:01:49.771Z,21.76
2017-08-13T08:02:50.517Z,21.80
2017-08-13T08:03:51.256Z,21.83
2017-08-13T08:04:52.003Z,21.83
2017-08-13T08:05:52.744Z,21.96
2017-08-13T08:06:53.489Z,22.02
2017-08-13T08:07:54.254Z,21.96
2017-08-13T08:08:55.000Z,22.08
2017-08-13T08:09:55.765Z,22.18
2017-08-13T08:10:56.516Z,22.06
2017-08-13T08:11:57.256Z,22.00
2017-08-13T08:12:57.997Z,22.18
2017-08-13T08:13:58.740Z,21.99
2017-08-13T08:14:59.484Z,21.93
2017-08-13T08:16:00.219Z,22.39
2017-08-13T08:17:00.962Z,22.44
2017-08-13T08:18:01.703Z,22.33
2017-08-13T08:19:02.439Z,21.99
2017-08-13T08:20:03.181Z,22.02
2017-08-13T08:21:03.924Z,21.96
2017-08-13T08:22:04.667Z,22.38
2017-08-13T08:23:05.409Z,22.99
2017-08-13T08:24:06.149Z,22.76
2017-08-13T08:25:06.892Z,23.10
2017-08-13T08:26:07.653Z,23.63
2017-08-13T08:27:08.395Z,23.50
2017-08-13T08:28:09.158Z,23.41
2017-08-13T08:29:09.897Z,23.76
2017-08-13T08:30:10.641Z,23.77
2017-08-13T08:31:11.399Z,23.37
2017-08-13T08:32:12.140Z,23.40
2017-08-13T08:33:12.882Z,23.06
2017-08-13T08:34:13.621Z,23.40
2017-08-13T08:35:14.361Z,23.06
2017-08-13T08:36:15.129Z,22.59
2017-08-13T08:37:15.871Z,22.90
2017-08-13T08:38:16.613Z,23.46
2017-08-13T08:39:17.359Z,23.59
2017-08-13T08:40:18.100Z,24.01
2017-08-13T08:41:18.869Z,24.38
2017-08-13T08:42:19.612Z,24.32
2017-08-13T08:43:20.369Z,24.76
2017-08-13T08:44:21.097Z,25.31
2017-08-13T08:45:21.838Z,24.42
2017-08-13T08:46:22.605Z,23.78
2017-08-13T08:47:23.346Z,23.58
2017-08-13T08:48:24.086Z,23.55
2017-08-13T08:49:24.829Z,23.48
2017-08-13T08:50:25.594Z,23.39
2017-08-13T08:51:26.333Z,23.46
2017-08-13T08:52:27.078Z,23.50
2017-08-13T08:53:27.815Z,22.90
2017-08-13T08:54:28.559Z,23.24
2017-08-13T08:55:29.302Z,22.88
2017-08-13T08:56:30.043Z,22.60
2017-08-13T08:57:30.784Z,22.32
2017-08-13T08:58:31.523Z,22.39
2017-08-13T08:59:32.271Z,22.32
2017-08-13T09:00:33.033Z,22.76
2017-08-13T09:01:33.777Z,22.96
2017-08-13T09:02:34.528Z,23.43
2017-08-13T09:03:35.266Z,23.56
2017-08-13T09:04:36.031Z,23.93
2017-08-13T09:05:36.773Z,23.80
2017-08-13T09:06:37.512Z,23.76
2017-08-13T09:07:38.259Z,24.26
2017-08-13T09:08:39.001Z,24.47
2017-08-13T09:09:39.740Z,24.21
2017-08-13T09:10:40.478Z,23.81
2017-08-13T09:11:41.223Z,23.80
2017-08-13T09:12:41.988Z,23.71
2017-08-13T09:13:42.731Z,23.98
2017-08-13T09:14:43.496Z,24.24
2017-08-13T09:15:44.237Z,24.36
2017-08-13T09:16:44.993Z,24.28
2017-08-13T09:17:45.748Z,24.77
2017-08-13T09:18:46.486Z,25.31
2017-08-13T09:19:47.250Z,25.53
2017-08-13T09:20:47.992Z,25.59
2017-08-13T09:21:48.737Z,25.01
2017-08-13T09:22:49.478Z,23.99
2017-08-13T09:23:50.219Z,23.69
2017-08-13T09:24:50.962Z,23.63
2017-08-13T09:25:51.704Z,23.95
2017-08-13T09:26:52.442Z,23.84
2017-08-13T09:27:53.187Z,24.24
2017-08-13T09:28:53.951Z,24.61
2017-08-13T09:29:54.692Z,24.80
2017-08-13T09:30:55.440Z,24.29
2017-08-13T09:31:56.184Z,24.26
2017-08-13T09:32:56.927Z,24.18
2017-08-13T09:33:57.672Z,24.66
2017-08-13T09:34:58.414Z,24.45
2017-08-13T09:35:59.154Z,24.35
2017-08-13T09:36:59.898Z,23.56
2017-08-13T09:38:00.657Z,23.34
2017-08-13T09:39:01.399Z,22.99
2017-08-13T09:40:02.147Z,23.08
2017-08-13T09:41:02.882Z,23.47
2017-08-13T09:42:03.633Z,23.80
2017-08-13T09:43:04.370Z,23.88
2017-08-13T09:44:05.115Z,23.68
2017-08-13T09:45:05.853Z,23.71
2017-08-13T09:46:06.599Z,23.78
2017-08-13T09:47:07.362Z,23.93
2017-08-13T09:48:08.106Z,24.03
2017-08-13T09:49:08.846Z,24.66
2017-08-13T09:50:09.589Z,24.35
2017-08-13T09:51:10.332Z,24.26
2017-08-13T09:52:11.072Z,24.55
2017-08-13T09:53:11.817Z,24.11
2017-08-13T09:54:12.560Z,24.58
2017-08-13T09:55:13.326Z,25.07
2017-08-13T09:56:14.071Z,24.68
2017-08-13T09:57:14.819Z,24.39
2017-08-13T09:58:15.580Z,24.63
2017-08-13T09:59:16.318Z,23.92
2017-08-13T10:00:17.063Z,23.87
2017-08-13T10:01:17.808Z,23.78
2017-08-13T10:02:18.573Z,23.48
2017-08-13T10:03:19.312Z,23.41
2017-08-13T10:04:20.076Z,23.65
2017-08-13T10:05:20.831Z,24.17
2017-08-13T10:06:21.591Z,24.18
2017-08-13T10:07:22.335Z,24.38
2017-08-13T10:08:23.080Z,24.42
2017-08-13T10:09:23.832Z,24.38
2017-08-13T10:10:24.603Z,24.42
2017-08-13T10:11:25.346Z,24.30
2017-08-13T10:12:26.092Z,24.91
2017-08-13T10:13:26.837Z,24.60
2017-08-13T10:14:27.586Z,24.61
2017-08-13T10:15:28.332Z,24.95
2017-08-13T10:16:29.082Z,24.77
2017-08-13T10:17:29.832Z,24.86
2017-08-13T10:18:30.576Z,24.78
2017-08-13T10:19:31.324Z,24.70
2017-08-13T10:20:32.067Z,24.81
2017-08-13T10:21:32.814Z,24.92
2017-08-13T10:22:33.576Z,24.53
2017-08-13T10:23:34.339Z,24.81
2017-08-13T10:24:35.159Z,24.88
2017-08-13T10:25:35.852Z,24.93
2017-08-13T10:26:36.591Z,24.91
2017-08-13T10:27:37.336Z,25.13
2017-08-13T10:28:38.102Z,24.55
2017-08-13T10:29:38.841Z,25.53
2017-08-13T10:30:39.591Z,25.78
2017-08-13T10:31:40.332Z,25.16
2017-08-13T10:32:41.088Z,24.93
2017-08-13T10:33:41.834Z,25.43
2017-08-13T10:34:42.601Z,25.46
2017-08-13T10:35:43.347Z,25.36
2017-08-13T10:36:44.092Z,24.45
2017-08-13T10:37:44.834Z,23.98
2017-08-13T10:38:45.572Z,24.29
2017-08-13T10:39:46.309Z,24.06
2017-08-13T10:40:47.047Z,23.62
2017-08-13T10:41:47.783Z,23.51
2017-08-13T10:42:48.544Z,23.27
2017-08-13T10:43:49.278Z,23.08
2017-08-13T10:44:50.019Z,22.88
2017-08-13T10:45:50.749Z,22.84
2017-08-13T10:46:51.491Z,22.62
2017-08-13T10:47:52.230Z,22.55
2017-08-13T10:48:52.991Z,22.32
2017-08-13T10:49:53.725Z,22.17
2017-08-13T10:50:54.460Z,22.10
2017-08-13T10:51:55.201Z,21.93
2017-08-13T10:52:55.935Z,21.96
2017-08-13T10:53:56.668Z,21.99
2017-08-13T10:54:57.426Z,22.00
2017-08-13T10:55:58.187Z,21.93
2017-08-13T10:56:58.922Z,22.14
2017-08-13T10:57:59.658Z,22.10
2017-08-13T10:59:00.402Z,22.11
2017-08-13T11:00:01.131Z,22.10
2017-08-13T11:01:01.872Z,22.10
2017-08-13T11:02:02.612Z,22.22
2017-08-13T11:03:03.370Z,22.28
2017-08-13T11:04:04.111Z,22.45
2017-08-13T11:05:04.852Z,22.44
2017-08-13T11:06:05.585Z,22.62
2017-08-13T11:07:06.324Z,22.69
2017-08-13T11:08:07.060Z,22.87
2017-08-13T11:09:07.799Z,22.88
2017-08-13T11:10:08.536Z,22.83
2017-08-13T11:11:09.299Z,22.88
2017-08-13T11:12:10.032Z,22.98
2017-08-13T11:13:10.794Z,22.94
2017-08-13T11:14:11.531Z,22.94
2017-08-13T11:15:12.266Z,23.10
2017-08-13T11:16:13.005Z,23.28
2017-08-13T11:17:13.744Z,23.65
2017-08-13T11:18:14.483Z,23.55
2017-08-13T11:19:15.228Z,23.96
2017-08-13T11:20:15.992Z,24.58
2017-08-13T11:21:16.756Z,24.95
2017-08-13T11:22:17.496Z,24.91
2017-08-13T11:23:18.231Z,24.98
2017-08-13T11:24:18.971Z,24.66
2017-08-13T11:25:19.707Z,24.39
2017-08-13T11:26:20.474Z,24.42
2017-08-13T11:27:21.212Z,24.45
2017-08-13T11:28:21.950Z,24.47
2017-08-13T11:29:22.687Z,24.20
2017-08-13T11:30:23.431Z,24.20
2017-08-13T11:31:24.167Z,24.55
2017-08-13T11:32:24.906Z,24.84
2017-08-13T11:33:25.648Z,24.85
2017-08-13T11:34:26.390Z,25.32
2017-08-13T11:35:27.132Z,25.81
2017-08-13T11:36:27.875Z,25.66
2017-08-13T11:37:28.615Z,25.70
2017-08-13T11:38:29.356Z,26.25
2017-08-13T11:39:30.099Z,26.65
2017-08-13T11:40:30.864Z,25.88
2017-08-13T11:41:31.606Z,25.65
2017-08-13T11:42:32.342Z,25.14
2017-08-13T11:43:33.084Z,24.33
2017-08-13T11:44:33.824Z,24.40
2017-08-13T11:45:34.585Z,24.45
2017-08-13T11:46:35.350Z,24.24
2017-08-13T11:47:36.114Z,24.36
2017-08-13T11:48:36.857Z,24.58
2017-08-13T11:49:37.596Z,25.03
2017-08-13T11:50:38.341Z,25.26
2017-08-13T11:51:39.107Z,25.26
2017-08-13T11:52:39.847Z,25.22
2017-08-13T11:53:40.592Z,25.06
2017-08-13T11:54:41.330Z,24.47
2017-08-13T11:55:42.073Z,24.42
2017-08-13T11:56:42.819Z,24.47
2017-08-13T11:57:43.587Z,24.77
2017-08-13T11:58:44.327Z,25.18
2017-08-13T11:59:45.093Z,26.00
2017-08-13T12:00:45.835Z,26.66
2017-08-13T12:01:46.579Z,26.66
2017-08-13T12:02:47.324Z,25.90
2017-08-13T12:03:48.069Z,25.38
2017-08-13T12:04:48.808Z,26.05
2017-08-13T12:05:49.553Z,25.62
2017-08-13T12:06:50.296Z,26.02
2017-08-13T12:07:51.039Z,26.03
2017-08-13T12:08:51.807Z,25.90
2017-08-13T12:09:52.550Z,25.54
2017-08-13T12:10:53.296Z,25.41
2017-08-13T12:11:54.038Z,25.17
2017-08-13T12:12:54.804Z,25.17
2017-08-13T12:13:55.544Z,25.72
2017-08-13T12:14:56.288Z,26.41
2017-08-13T12:15:57.037Z,26.83
2017-08-13T12:16:57.803Z,27.32
2017-08-13T12:17:58.580Z,27.60
2017-08-13T12:18:59.327Z,28.20
2017-08-13T12:20:00.078Z,28.48
2017-08-13T12:21:00.834Z,28.91
2017-08-13T12:22:01.590Z,29.12
2017-08-13T12:23:02.338Z,28.10
2017-08-13T12:24:03.096Z,28.89
2017-08-13T12:25:03.848Z,29.10
2017-08-13T12:26:04.601Z,28.59
2017-08-13T12:27:05.352Z,29.13
2017-08-13T12:28:06.098Z,28.78
2017-08-13T12:29:06.847Z,28.75
2017-08-13T12:30:07.600Z,28.70
2017-08-13T12:31:08.368Z,28.52
2017-08-13T12:32:09.117Z,28.00
2017-08-13T12:33:09.871Z,28.20
2017-08-13T12:34:10.619Z,28.62
2017-08-13T12:35:11.370Z,28.79
2017-08-13T12:36:12.124Z,28.57
2017-08-13T12:37:12.873Z,28.38
2017-08-13T12:38:13.624Z,28.11
2017-08-13T12:39:14.372Z,27.55
2017-08-13T12:40:15.124Z,26.33
2017-08-13T12:41:15.895Z,26.66
2017-08-13T12:42:16.645Z,26.38
2017-08-13T12:43:17.390Z,25.77
2017-08-13T12:44:18.146Z,25.59
2017-08-13T12:45:18.900Z,26.06
2017-08-13T12:46:19.641Z,26.38
2017-08-13T12:47:20.392Z,26.06
2017-08-13T12:48:21.144Z,25.78
2017-08-13T12:49:21.884Z,25.60
2017-08-13T12:50:22.634Z,25.10
2017-08-13T12:51:23.372Z,24.80
2017-08-13T12:52:24.112Z,24.73
2017-08-13T12:53:24.879Z,24.95
2017-08-13T12:54:25.626Z,25.04
2017-08-13T12:55:26.388Z,25.04
2017-08-13T12:56:27.129Z,25.26
2017-08-13T12:57:27.892Z,25.32
2017-08-13T12:58:28.630Z,25.40
2017-08-13T12:59:29.393Z,25.41
2017-08-13T13:00:30.129Z,25.38
2017-08-13T13:01:30.867Z,25.38